Time;durP1;ratioP1;P1;durP2;ratioP2;P2;SDS_P1;SDS_P2;PMS_P1;PMS_P2;Temp;Humidity;BMP_temperature;BMP_pressure;BME280_temperature;BME280_humidity;BME280_pressure;Samples;Min_cycle;Max_cycle;Signal;HPM_P1;HPM_P2
2022/03/22 00:00:30;;;;;;;16.08;9.38;;;;;;;4.60;69.98;102425.69;5237189;28;20486;-78
2022/03/22 00:03:01;;;;;;;15.77;9.88;;;;;;;4.54;69.82;102425.59;5257111;28;20139;-78
2022/03/22 00:05:33;;;;;;;19.17;9.38;;;;;;;4.59;69.36;102434.31;5253636;28;20506;-77
2022/03/22 00:08:03;;;;;;;14.75;9.25;;;;;;;4.60;69.63;102430.88;5257061;28;20028;-78
2022/03/22 00:10:34;;;;;;;18.65;9.27;;;;;;;4.60;69.57;102435.19;5256772;28;20544;-77
2022/03/22 00:13:05;;;;;;;15.40;8.88;;;;;;;4.60;69.46;102433.47;5253224;28;20381;-78
2022/03/22 00:15:36;;;;;;;17.15;9.80;;;;;;;4.49;69.75;102434.97;5239318;28;20031;-77
2022/03/22 00:18:06;;;;;;;16.55;9.13;;;;;;;4.38;69.96;102436.50;5241266;28;20029;-78
2022/03/22 00:20:37;;;;;;;16.00;9.38;;;;;;;4.44;70.29;102440.94;5257680;28;20396;-77
2022/03/22 00:23:07;;;;;;;20.65;9.75;;;;;;;4.38;70.94;102433.03;5256998;28;20038;-78
2022/03/22 00:25:38;;;;;;;17.52;9.80;;;;;;;4.31;70.56;102431.19;5253612;28;20032;-77
2022/03/22 00:28:08;;;;;;;18.50;9.50;;;;;;;4.29;70.93;102443.22;5259018;28;20027;-78
2022/03/22 00:30:39;;;;;;;18.17;10.32;;;;;;;4.20;70.97;102441.31;5256842;28;20034;-78
2022/03/22 00:33:10;;;;;;;15.95;8.73;;;;;;;4.25;70.71;102436.22;5255710;28;20028;-78
2022/03/22 00:35:40;;;;;;;16.73;9.48;;;;;;;4.23;71.52;102430.16;5253594;28;20098;-78
2022/03/22 00:38:14;;;;;;;17.65;10.10;;;;;;;4.19;72.05;102434.41;5256822;28;20027;-77
2022/03/22 00:40:44;;;;;;;19.77;9.88;;;;;;;4.11;71.63;102433.38;5255279;28;20470;-78
2022/03/22 00:43:15;;;;;;;18.27;9.40;;;;;;;4.08;72.32;102433.31;5254191;28;20128;-78
2022/03/22 00:45:47;;;;;;;17.73;9.48;;;;;;;4.00;72.57;102434.00;5237118;28;20019;-77
2022/03/22 00:48:18;;;;;;;16.58;9.63;;;;;;;3.98;72.12;102436.53;5258031;28;20481;-78
2022/03/22 00:50:50;;;;;;;17.67;9.88;;;;;;;3.94;72.69;102424.41;5256585;28;20027;-77
2022/03/22 00:53:21;;;;;;;17.05;10.00;;;;;;;3.87;73.44;102437.16;5254794;28;20032;-77
2022/03/22 00:55:51;;;;;;;16.65;9.45;;;;;;;3.84;72.06;102431.94;5255261;28;20085;-77
2022/03/22 00:58:21;;;;;;;17.15;9.35;;;;;;;3.78;72.48;102430.09;5248498;28;20023;-78
2022/03/22 01:00:52;;;;;;;17.83;9.38;;;;;;;3.83;72.43;102428.50;5248400;28;20294;-77
2022/03/22 01:03:22;;;;;;;17.95;9.45;;;;;;;3.87;72.28;102437.16;5235184;28;20036;-79
2022/03/22 01:05:52;;;;;;;17.75;9.27;;;;;;;3.93;72.68;102425.22;5235637;28;20024;-78
2022/03/22 01:08:23;;;;;;;19.38;9.43;;;;;;;3.84;72.95;102427.66;5255923;28;20586;-78
2022/03/22 01:10:53;;;;;;;17.88;10.15;;;;;;;3.71;73.46;102425.63;5253291;28;20063;-78
2022/03/22 01:13:25;;;;;;;21.05;10.43;;;;;;;3.73;73.79;102425.66;5254631;28;20315;-78
2022/03/22 01:15:57;;;;;;;17.75;9.90;;;;;;;3.58;74.58;102428.78;5253103;28;20021;-77
2022/03/22 01:18:27;;;;;;;19.15;10.88;;;;;;;3.50;76.04;102423.41;5254812;28;20047;-78
2022/03/22 01:20:58;;;;;;;17.20;10.13;;;;;;;3.40;76.18;102421.44;5252906;28;20055;-78
2022/03/22 01:23:28;;;;;;;17.48;9.95;;;;;;;3.42;75.75;102420.66;5254976;28;20040;-78
2022/03/22 01:25:59;;;;;;;19.77;9.93;;;;;;;3.44;76.08;102418.09;5235625;28;20051;-78
2022/03/22 01:28:29;;;;;;;18.42;9.65;;;;;;;3.30;76.21;102416.91;5247839;28;20029;-77
2022/03/22 01:31:00;;;;;;;20.10;10.35;;;;;;;3.26;76.59;102417.69;5247545;28;20442;-78
2022/03/22 01:33:30;;;;;;;18.70;10.45;;;;;;;3.30;75.17;102414.31;5250039;28;20028;-79
2022/03/22 01:36:00;;;;;;;17.00;9.73;;;;;;;3.45;74.54;102412.09;5248188;28;20774;-77
2022/03/22 01:38:31;;;;;;;19.73;10.23;;;;;;;3.48;74.06;102410.44;5259029;28;20073;-77
2022/03/22 01:41:01;;;;;;;19.00;10.73;;;;;;;3.34;75.70;102409.25;5251470;28;20043;-77
2022/03/22 01:43:31;;;;;;;19.83;10.20;;;;;;;3.36;74.99;102415.34;5255506;28;20028;-77
2022/03/22 01:46:02;;;;;;;19.20;10.77;;;;;;;3.33;74.81;102415.28;5251646;28;20155;-78
2022/03/22 01:48:32;;;;;;;16.38;8.95;;;;;;;3.39;74.76;102409.38;5254861;28;20366;-78
2022/03/22 01:51:02;;;;;;;17.58;10.02;;;;;;;3.35;74.65;102407.56;5253215;28;20277;-77
2022/03/22 01:53:35;;;;;;;18.35;10.38;;;;;;;3.15;75.57;102404.50;5256258;28;20111;-78
2022/03/22 01:56:06;;;;;;;20.73;10.48;;;;;;;2.97;76.42;102408.34;5252893;28;20462;-77
2022/03/22 01:58:36;;;;;;;22.65;10.98;;;;;;;3.10;75.92;102402.66;5246293;28;20241;-78
2022/03/22 02:06:54;;;;;;;22.20;10.07;;;;;;;2.95;75.84;102404.88;5248136;28;20078;-77
2022/03/22 02:09:24;;;;;;;22.15;10.95;;;;;;;2.97;75.77;102405.78;5254265;28;20032;-77
2022/03/22 02:11:55;;;;;;;19.05;10.18;;;;;;;2.77;77.46;102399.25;5251997;28;20390;-77
2022/03/22 02:14:26;;;;;;;19.55;10.73;;;;;;;2.82;76.29;102408.00;5253214;28;20390;-78
2022/03/22 02:16:56;;;;;;;20.42;10.63;;;;;;;2.72;77.38;102403.44;5255157;28;20287;-77
2022/03/22 02:19:27;;;;;;;19.35;11.02;;;;;;;2.73;76.92;102403.50;5250482;28;20031;-78
2022/03/22 02:22:01;;;;;;;23.10;11.20;;;;;;;2.71;77.09;102409.44;5253635;28;20016;-77
2022/03/22 02:24:31;;;;;;;19.77;10.95;;;;;;;2.62;76.92;102415.22;5251245;28;20468;-77
2022/03/22 02:27:01;;;;;;;20.67;11.70;;;;;;;2.45;77.92;102413.03;5250539;28;20032;-77
2022/03/22 02:29:32;;;;;;;21.17;10.95;;;;;;;2.64;76.78;102407.50;5248507;28;20107;-77
2022/03/22 02:32:04;;;;;;;21.65;10.75;;;;;;;2.74;76.74;102399.19;5253881;28;20051;-77
2022/03/22 02:34:37;;;;;;;18.95;10.30;;;;;;;2.53;77.60;102404.66;5250627;28;20029;-77
2022/03/22 02:37:07;;;;;;;19.60;10.82;;;;;;;2.42;78.77;102400.06;5254008;28;20034;-78
2022/03/22 02:39:37;;;;;;;20.25;10.63;;;;;;;2.49;78.64;102402.84;5254690;28;20032;-78
2022/03/22 02:42:08;;;;;;;27.23;12.07;;;;;;;2.46;77.89;102404.44;5233011;28;20469;-77
2022/03/22 02:44:38;;;;;;;19.15;11.30;;;;;;;2.32;78.81;102408.41;5245657;28;20436;-77
2022/03/22 02:47:09;;;;;;;21.45;10.85;;;;;;;2.37;78.76;102405.09;5253375;28;20019;-77
2022/03/22 02:49:39;;;;;;;19.17;11.90;;;;;;;2.20;79.31;102403.75;5252844;28;20020;-77
2022/03/22 02:52:09;;;;;;;21.95;11.98;;;;;;;2.27;78.98;102399.66;5233829;28;20109;-76
2022/03/22 02:54:40;;;;;;;22.92;11.65;;;;;;;2.17;79.80;102407.97;5256680;28;20020;-76
2022/03/22 02:57:10;;;;;;;21.92;11.43;;;;;;;2.38;78.02;102404.28;5251717;28;20016;-77
2022/03/22 02:59:40;;;;;;;20.73;11.57;;;;;;;2.35;78.99;102408.47;5254909;28;20421;-77
2022/03/22 03:02:11;;;;;;;20.77;11.10;;;;;;;2.50;77.30;102408.88;5252052;28;20111;-77
2022/03/22 03:04:41;;;;;;;20.88;11.10;;;;;;;2.56;76.91;102406.44;5255939;28;20035;-77
2022/03/22 03:07:11;;;;;;;23.75;11.45;;;;;;;2.26;78.06;102413.38;5252735;28;20046;-77
2022/03/22 03:09:41;;;;;;;19.38;11.77;;;;;;;2.18;78.92;102410.59;5250691;28;20028;-77
2022/03/22 03:12:12;;;;;;;22.63;11.10;;;;;;;2.07;79.64;102421.44;5246738;28;20482;-77
2022/03/22 03:14:43;;;;;;;23.75;11.77;;;;;;;2.23;78.39;102415.88;5249200;28;20056;-77
2022/03/22 03:17:14;;;;;;;19.77;11.20;;;;;;;2.39;77.07;102416.34;5255398;28;20028;-77
2022/03/22 03:19:45;;;;;;;20.08;11.25;;;;;;;2.33;77.34;102420.47;5252707;28;20024;-77
2022/03/22 03:22:15;;;;;;;24.02;11.73;;;;;;;1.97;79.28;102415.16;5253801;28;20505;-77
2022/03/22 03:24:46;;;;;;;19.17;11.23;;;;;;;1.97;79.71;102420.31;5257287;28;20093;-77
2022/03/22 03:27:16;;;;;;;20.00;11.18;;;;;;;2.26;77.49;102410.78;5251400;28;20043;-77
2022/03/22 03:29:46;;;;;;;18.98;10.93;;;;;;;2.47;77.50;102419.13;5249594;28;20047;-77
2022/03/22 03:32:17;;;;;;;22.45;12.05;;;;;;;2.30;77.26;102420.38;5255308;28;20062;-77
2022/03/22 03:34:47;;;;;;;21.70;11.70;;;;;;;2.33;76.66;102423.03;5252499;28;20031;-77
2022/03/22 03:37:17;;;;;;;19.13;11.52;;;;;;;2.38;76.67;102430.09;5254185;28;20605;-77
2022/03/22 03:39:48;;;;;;;21.17;11.65;;;;;;;2.25;77.98;102432.25;5257587;28;20486;-77
2022/03/22 03:42:18;;;;;;;19.58;11.18;;;;;;;2.22;78.02;102430.50;5258782;28;20074;-76
2022/03/22 03:47:37;;;;;;;21.58;11.18;;;;;;;2.20;77.95;102428.69;5248157;28;20675;-77
2022/03/22 03:50:10;;;;;;;25.05;12.00;;;;;;;2.17;76.96;102431.19;5255354;28;20020;-77
2022/03/22 03:52:40;;;;;;;22.10;11.98;;;;;;;1.95;78.50;102428.81;5262938;28;20301;-76
2022/03/22 03:55:10;;;;;;;22.27;11.63;;;;;;;1.95;79.01;102431.38;5254251;28;20028;-77
2022/03/22 03:57:41;;;;;;;24.88;12.40;;;;;;;1.81;79.49;102436.16;5253956;28;20096;-77
2022/03/22 04:00:12;;;;;;;22.17;12.63;;;;;;;1.67;80.03;102444.31;5256848;28;20036;-77
2022/03/22 04:02:42;;;;;;;26.13;12.52;;;;;;;1.70;80.59;102436.69;5237850;28;20020;-76
2022/03/22 04:05:13;;;;;;;26.15;12.68;;;;;;;1.59;81.08;102440.63;5261649;28;20557;-76
2022/03/22 04:07:43;;;;;;;24.90;13.20;;;;;;;1.60;81.52;102441.50;5256555;28;20030;-77
2022/03/22 04:10:13;;;;;;;22.23;12.00;;;;;;;1.53;81.35;102439.56;5253394;28;20520;-77
2022/03/22 04:12:44;;;;;;;23.23;12.88;;;;;;;1.46;81.94;102441.09;5263185;28;20035;-77
2022/03/22 04:15:15;;;;;;;24.15;12.10;;;;;;;1.36;82.61;102446.78;5257041;28;20032;-77
2022/03/22 04:17:45;;;;;;;26.13;13.15;;;;;;;1.42;82.03;102439.22;5257589;28;20042;-77
2022/03/22 04:20:17;;;;;;;21.90;12.70;;;;;;;1.44;81.95;102440.16;5255838;28;20123;-76
2022/03/22 04:22:47;;;;;;;27.95;13.20;;;;;;;1.42;81.76;102440.94;5257190;28;20059;-77
2022/03/22 04:25:18;;;;;;;24.70;13.65;;;;;;;1.29;82.26;102439.69;5254791;28;20705;-77
2022/03/22 04:33:26;;;;;;;27.83;13.52;;;;;;;1.24;82.80;102453.25;5258934;28;20036;-77
2022/03/22 04:35:56;;;;;;;27.67;13.80;;;;;;;1.31;82.72;102443.19;5255996;28;20024;-77
2022/03/22 04:38:27;;;;;;;27.55;14.15;;;;;;;1.07;84.92;102450.13;5257796;28;20505;-77
2022/03/22 04:40:57;;;;;;;26.23;13.70;;;;;;;1.06;84.27;102450.94;5251411;28;20024;-77
2022/03/22 04:43:27;;;;;;;23.20;13.25;;;;;;;1.23;83.20;102456.66;5252989;28;20024;-76
2022/03/22 04:45:58;;;;;;;31.65;13.27;;;;;;;1.35;82.49;102449.28;5255113;28;20056;-76
2022/03/22 04:48:29;;;;;;;26.80;13.63;;;;;;;1.44;81.68;102445.31;5256306;28;20032;-77
2022/03/22 04:59:23;;;;;;;25.02;13.18;;;;;;;1.46;82.04;102443.69;5254802;28;20036;-77
2022/03/22 05:01:53;;;;;;;25.35;13.70;;;;;;;1.19;83.74;102440.22;5252758;28;20024;-77
2022/03/22 05:04:24;;;;;;;25.90;13.88;;;;;;;1.20;83.29;102443.69;5255803;28;20036;-77
2022/03/22 05:06:54;;;;;;;23.75;13.65;;;;;;;1.25;83.16;102445.56;5253685;28;20020;-77
2022/03/22 05:09:24;;;;;;;22.77;12.85;;;;;;;1.21;83.50;102448.88;5257419;28;20030;-78
2022/03/22 05:11:59;;;;;;;26.80;14.27;;;;;;;1.41;82.86;102441.78;5253440;28;20024;-77
2022/03/22 05:14:29;;;;;;;24.70;14.10;;;;;;;1.25;82.36;102453.28;5257920;28;20059;-77
2022/03/22 05:16:59;;;;;;;24.67;13.65;;;;;;;1.23;82.37;102454.94;5257110;28;20639;-77
2022/03/22 05:19:30;;;;;;;23.65;13.55;;;;;;;1.04;83.46;102451.75;5261557;28;20030;-76
2022/03/22 05:22:01;;;;;;;28.15;13.82;;;;;;;1.28;82.74;102460.25;5254289;28;20020;-76
2022/03/22 05:24:31;;;;;;;22.15;12.65;;;;;;;1.42;81.55;102461.56;5253801;28;20107;-76
2022/03/22 05:27:02;;;;;;;24.77;13.57;;;;;;;1.24;81.22;102464.41;5257060;28;20024;-77
2022/03/22 05:29:32;;;;;;;25.33;13.48;;;;;;;1.46;80.87;102466.84;5259614;28;20111;-77
2022/03/22 05:32:03;;;;;;;23.55;13.15;;;;;;;1.41;80.97;102468.41;5253341;28;20096;-77
2022/03/22 05:34:33;;;;;;;25.08;13.70;;;;;;;1.30;81.92;102471.47;5253751;28;20032;-76
2022/03/22 05:37:04;;;;;;;23.05;13.23;;;;;;;1.29;82.72;102468.03;5257505;28;20044;-77
2022/03/22 05:39:35;;;;;;;25.98;13.73;;;;;;;1.49;81.38;102466.94;5250385;28;20029;-77
2022/03/22 05:42:06;;;;;;;25.45;13.50;;;;;;;1.80;81.10;102472.22;5252592;28;20035;-76
2022/03/22 05:44:36;;;;;;;23.92;12.88;;;;;;;1.53;82.95;102458.47;5247625;28;20028;-77
2022/03/22 05:47:07;;;;;;;24.80;13.10;;;;;;;1.38;83.00;102460.56;5259644;28;20110;-77
2022/03/22 05:49:38;;;;;;;26.42;13.57;;;;;;;1.60;82.30;102451.81;5265213;28;20035;-77
2022/03/22 05:52:08;;;;;;;25.65;13.80;;;;;;;1.48;83.30;102456.59;5254016;28;20028;-77
2022/03/22 05:54:38;;;;;;;25.58;13.20;;;;;;;1.62;82.37;102466.50;5232258;28;20028;-76
2022/03/22 05:57:10;;;;;;;25.48;13.95;;;;;;;1.83;82.01;102460.28;5258241;28;20123;-77
2022/03/22 05:59:40;;;;;;;28.77;13.63;;;;;;;1.53;84.83;102458.47;5258902;28;20081;-76
2022/03/22 06:02:10;;;;;;;25.75;13.98;;;;;;;1.30;85.57;102464.63;5252296;28;20036;-76
2022/03/22 06:04:41;;;;;;;29.52;14.60;;;;;;;1.49;85.35;102454.06;5256901;28;20032;-76
2022/03/22 06:07:11;;;;;;;27.48;14.23;;;;;;;1.58;84.57;102459.50;5252590;28;20094;-76
2022/03/22 06:09:42;;;;;;;24.33;13.57;;;;;;;1.92;82.84;102459.66;5247604;28;20050;-76
2022/03/22 06:12:12;;;;;;;24.15;13.93;;;;;;;1.80;83.88;102462.75;5261066;28;20534;-77
2022/03/22 06:14:43;;;;;;;24.70;13.95;;;;;;;2.04;82.94;102452.28;5248785;28;20039;-77
2022/03/22 06:17:13;;;;;;;24.88;14.00;;;;;;;2.28;82.43;102463.28;5249659;28;20621;-77
2022/03/22 06:19:43;;;;;;;28.05;13.57;;;;;;;2.45;82.62;102462.06;5247143;28;20123;-77
2022/03/22 06:22:13;;;;;;;26.00;13.82;;;;;;;2.39;83.05;102460.19;5251991;28;20028;-77
2022/03/22 06:24:44;;;;;;;23.98;14.10;;;;;;;2.48;82.44;102469.91;5254146;28;20024;-77
2022/03/22 06:27:17;;;;;;;26.98;14.13;;;;;;;2.68;83.54;102460.97;5255811;28;20114;-77
2022/03/22 06:29:47;;;;;;;28.73;12.88;;;;;;;2.78;83.43;102466.41;5253288;28;20024;-77
2022/03/22 06:32:18;;;;;;;30.30;14.65;;;;;;;2.71;86.23;102471.38;5253607;28;20036;-77
2022/03/22 06:34:49;;;;;;;25.17;14.20;;;;;;;2.74;85.55;102467.19;5249638;28;20482;-76
2022/03/22 06:37:19;;;;;;;24.38;13.60;;;;;;;3.02;85.18;102464.44;5256370;28;20085;-77
2022/03/22 06:39:50;;;;;;;26.27;14.32;;;;;;;3.01;83.66;102470.44;5261963;28;20087;-77
2022/03/22 06:42:20;;;;;;;28.75;14.73;;;;;;;3.20;83.26;102471.78;5258366;28;20032;-77
2022/03/22 06:44:50;;;;;;;25.55;14.15;;;;;;;3.29;83.39;102470.31;5260995;28;20114;-77
2022/03/22 06:47:21;;;;;;;30.75;14.85;;;;;;;3.49;81.67;102483.66;5265177;28;20104;-77
2022/03/22 06:49:51;;;;;;;26.55;14.63;;;;;;;3.65;81.87;102482.34;5263338;28;20028;-77
2022/03/22 06:52:22;;;;;;;23.13;13.10;;;;;;;3.81;80.23;102479.28;5254015;28;20032;-78
2022/03/22 06:54:52;;;;;;;27.45;13.98;;;;;;;3.86;81.91;102480.28;5259122;28;20048;-78
2022/03/22 06:57:23;;;;;;;29.45;14.07;;;;;;;4.05;81.13;102485.00;5255683;28;20028;-77
2022/03/22 06:59:53;;;;;;;27.65;14.32;;;;;;;4.43;80.87;102488.38;5254588;28;20028;-77
2022/03/22 07:02:23;;;;;;;25.80;14.88;;;;;;;4.37;79.88;102488.22;5259850;28;20033;-77
2022/03/22 07:04:54;;;;;;;27.30;14.00;;;;;;;4.45;78.92;102492.72;5259837;28;20032;-77
2022/03/22 07:07:24;;;;;;;26.13;14.00;;;;;;;4.57;78.42;102498.16;5261521;28;20115;-77
2022/03/22 07:09:54;;;;;;;27.08;14.45;;;;;;;4.69;77.74;102494.91;5262207;28;20024;-77
2022/03/22 07:12:24;;;;;;;23.05;13.80;;;;;;;4.91;77.94;102492.75;5253736;28;20108;-77
2022/03/22 07:14:55;;;;;;;28.17;14.43;;;;;;;5.14;78.12;102498.34;5259021;28;20028;-77
2022/03/22 07:17:25;;;;;;;27.25;13.95;;;;;;;5.41;77.52;102499.66;5251072;28;20481;-77
2022/03/22 07:19:56;;;;;;;26.13;13.80;;;;;;;5.69;76.21;102496.63;5248298;28;20048;-77
2022/03/22 07:22:26;;;;;;;26.33;13.50;;;;;;;5.95;75.57;102508.28;5259536;28;20486;-77
2022/03/22 07:24:57;;;;;;;20.65;12.85;;;;;;;6.75;71.24;102494.59;5260211;28;20039;-77
2022/03/22 07:27:27;;;;;;;23.17;12.98;;;;;;;8.97;67.04;102483.84;5252222;28;20044;-77
2022/03/22 07:29:57;;;;;;;21.33;12.02;;;;;;;11.00;60.72;102480.69;5264293;28;20777;-78
2022/03/22 07:32:28;;;;;;;20.52;11.85;;;;;;;12.19;58.31;102478.72;5263193;28;20115;-78
2022/03/22 07:35:02;;;;;;;17.90;11.30;;;;;;;12.46;53.98;102473.13;5266133;28;20099;-78
2022/03/22 07:37:33;;;;;;;18.63;10.77;;;;;;;14.32;53.27;102465.63;5268709;28;20028;-77
2022/03/22 07:40:09;;;;;;;19.88;11.48;;;;;;;12.99;53.49;102471.53;5269596;28;20035;-78
2022/03/22 07:42:39;;;;;;;19.17;10.65;;;;;;;14.77;50.46;102458.50;5271186;28;20028;-78
2022/03/22 07:45:10;;;;;;;17.02;11.20;;;;;;;14.99;50.10;102450.91;5263095;28;20027;-78
2022/03/22 07:47:41;;;;;;;17.23;10.48;;;;;;;15.28;49.86;102452.84;5270491;28;20036;-78
2022/03/22 07:53:07;;;;;;;14.52;9.95;;;;;;;16.00;48.08;102459.72;5263847;28;20091;-78
2022/03/22 07:55:39;;;;;;;18.45;11.30;;;;;;;16.17;46.57;102467.16;5253616;28;20029;-78
2022/03/22 07:58:11;;;;;;;17.45;10.80;;;;;;;16.53;46.83;102453.78;5255388;28;20028;-76
2022/03/22 08:00:42;;;;;;;15.13;10.70;;;;;;;17.36;45.96;102452.03;5253141;28;20085;-75
2022/03/22 08:03:15;;;;;;;16.35;11.27;;;;;;;17.63;45.41;102453.75;5260429;28;20111;-76
2022/03/22 08:05:46;;;;;;;15.45;10.52;;;;;;;18.39;45.80;102450.94;5254279;28;20024;-76
2022/03/22 08:08:17;;;;;;;16.58;10.98;;;;;;;18.52;43.07;102459.28;5265011;28;20027;-76
2022/03/22 08:10:47;;;;;;;15.00;10.73;;;;;;;18.92;43.36;102453.22;5259162;28;20031;-76
2022/03/22 08:13:18;;;;;;;17.02;10.65;;;;;;;19.28;43.54;102454.41;5256719;28;20031;-75
2022/03/22 08:15:48;;;;;;;13.55;10.70;;;;;;;18.98;44.11;102455.63;5256861;28;20029;-76
2022/03/22 08:18:18;;;;;;;15.05;10.68;;;;;;;18.39;45.72;102456.25;5252826;28;20398;-76
2022/03/22 08:20:49;;;;;;;14.15;10.57;;;;;;;19.91;42.57;102456.06;5232920;28;20028;-76
2022/03/22 08:23:20;;;;;;;18.40;10.80;;;;;;;19.27;43.14;102452.66;5253507;28;20107;-76
2022/03/22 08:25:51;;;;;;;20.53;11.20;;;;;;;18.68;44.07;102461.25;5253603;28;20159;-76
2022/03/22 08:28:21;;;;;;;14.65;10.98;;;;;;;19.34;43.79;102454.16;5247804;28;20301;-76
2022/03/22 08:30:52;;;;;;;19.73;11.00;;;;;;;19.16;44.13;102451.34;5250276;28;20032;-76
2022/03/22 08:33:22;;;;;;;14.35;10.13;;;;;;;18.16;45.42;102456.19;5254371;28;20080;-76
2022/03/22 08:35:53;;;;;;;17.30;11.10;;;;;;;18.95;43.45;102446.94;5259588;28;20036;-76
2022/03/22 08:38:27;;;;;;;15.60;11.35;;;;;;;17.44;45.38;102457.91;5257031;28;20290;-76
2022/03/22 08:40:57;;;;;;;16.80;11.48;;;;;;;18.21;44.79;102456.00;5251893;28;20052;-76
2022/03/22 08:43:28;;;;;;;13.93;10.38;;;;;;;19.73;43.18;102455.09;5251831;28;20056;-76
2022/03/22 08:45:58;;;;;;;14.45;10.80;;;;;;;19.14;44.50;102450.56;5254926;28;20016;-76
2022/03/22 08:48:28;;;;;;;15.77;10.88;;;;;;;18.83;44.00;102448.28;5234953;28;20056;-75
2022/03/22 08:50:59;;;;;;;15.10;10.87;;;;;;;19.31;45.25;102448.97;5253788;28;20115;-75
2022/03/22 08:53:30;;;;;;;14.47;10.83;;;;;;;18.76;45.90;102446.78;5251552;28;20285;-74
2022/03/22 08:56:03;;;;;;;14.73;10.70;;;;;;;19.60;44.62;102443.28;5251341;28;20895;-73
2022/03/22 08:58:34;;;;;;;15.82;10.60;;;;;;;17.51;47.33;102451.50;5246808;28;20038;-74
2022/03/22 09:01:04;;;;;;;13.93;10.03;;;;;;;19.90;44.20;102444.63;5250051;28;20115;-76
2022/03/22 09:03:35;;;;;;;16.10;10.88;;;;;;;19.52;43.49;102441.91;5236147;28;20278;-76
2022/03/22 09:06:08;;;;;;;14.95;10.45;;;;;;;20.64;41.66;102434.09;5250338;28;20029;-74
2022/03/22 09:08:40;;;;;;;13.68;9.68;;;;;;;20.73;41.90;102433.66;5256222;28;20023;-76
2022/03/22 09:11:10;;;;;;;16.83;11.00;;;;;;;19.70;43.97;102441.97;5252042;28;20036;-76
2022/03/22 09:13:41;;;;;;;14.10;10.32;;;;;;;19.62;42.42;102443.25;5255039;28;20020;-75
2022/03/22 09:16:13;;;;;;;14.90;10.50;;;;;;;17.26;46.35;102453.19;5255711;28;20020;-75
2022/03/22 09:18:44;;;;;;;16.83;10.80;;;;;;;17.06;46.47;102445.06;5253204;28;20033;-76
2022/03/22 09:21:16;;;;;;;13.95;10.45;;;;;;;17.60;45.85;102449.41;5253673;28;20030;-75
2022/03/22 09:23:46;;;;;;;15.00;10.45;;;;;;;17.89;45.37;102437.78;5256416;28;20733;-76
2022/03/22 09:26:17;;;;;;;14.13;10.48;;;;;;;18.19;46.38;102434.88;5267376;28;20030;-77
2022/03/22 09:28:52;;;;;;;15.02;10.73;;;;;;;17.98;46.52;102440.13;5266331;28;20031;-79
2022/03/22 09:31:24;;;;;;;18.88;11.63;;;;;;;16.44;48.85;102440.88;5268367;28;20024;-79
2022/03/22 09:33:54;;;;;;;15.70;11.18;;;;;;;16.42;48.51;102434.75;5249405;28;20607;-79
2022/03/22 09:36:24;;;;;;;18.52;11.50;;;;;;;16.00;51.05;102433.34;5257906;28;20024;-78
2022/03/22 09:38:55;;;;;;;18.15;11.05;;;;;;;16.11;50.30;102427.75;5239797;28;20028;-78
2022/03/22 09:41:30;;;;;;;14.80;10.45;;;;;;;16.10;49.66;102442.75;5259321;28;20082;-78
2022/03/22 09:44:02;;;;;;;15.43;11.23;;;;;;;16.25;49.55;102437.00;5254431;28;20538;-78
2022/03/22 09:46:33;;;;;;;16.40;10.85;;;;;;;15.79;48.91;102436.59;5237163;28;20041;-78
2022/03/22 09:49:03;;;;;;;16.20;10.90;;;;;;;16.12;50.88;102440.94;5259211;28;20027;-78
2022/03/22 09:51:45;;;;;;;18.33;11.98;;;;;;;15.85;50.47;102440.84;5245952;28;20124;-78
2022/03/22 09:54:22;;;;;;;21.70;11.70;;;;;;;15.85;50.18;102444.31;5242405;28;20035;-78
2022/03/22 09:56:53;;;;;;;18.90;11.45;;;;;;;15.66;50.54;102440.44;5232821;28;20091;-79
2022/03/22 09:59:23;;;;;;;21.05;12.43;;;;;;;15.90;52.57;102437.13;5255593;28;20036;-79
2022/03/22 10:01:54;;;;;;;18.37;11.90;;;;;;;16.10;51.39;102437.47;5261094;28;20239;-79
2022/03/22 10:04:35;;;;;;;17.70;11.77;;;;;;;16.00;52.03;102430.72;5261517;28;20403;-79
2022/03/22 10:07:08;;;;;;;20.42;11.93;;;;;;;15.99;50.48;102431.63;5259699;28;20055;-79
2022/03/22 10:09:39;;;;;;;19.67;12.50;;;;;;;15.86;51.38;102427.59;5259985;28;20111;-78
2022/03/22 10:12:12;;;;;;;23.73;12.02;;;;;;;16.17;51.47;102431.09;5259602;28;20035;-78
2022/03/22 10:14:43;;;;;;;18.17;11.43;;;;;;;16.03;50.11;102429.78;5257467;28;20028;-78
2022/03/22 10:17:17;;;;;;;16.60;11.20;;;;;;;16.10;51.45;102429.56;5261228;28;20111;-78
2022/03/22 10:19:50;;;;;;;20.00;11.80;;;;;;;16.21;53.32;102423.97;5263060;28;20024;-78
2022/03/22 10:22:25;;;;;;;20.80;11.77;;;;;;;16.18;54.21;102418.78;5262277;28;20570;-78
2022/03/22 10:25:01;;;;;;;18.13;11.50;;;;;;;16.31;52.63;102426.28;5258853;28;20039;-78
2022/03/22 10:27:36;;;;;;;21.40;11.50;;;;;;;16.20;50.69;102424.88;5243521;28;20031;-79
2022/03/22 10:30:11;;;;;;;18.40;10.60;;;;;;;16.26;50.56;102422.03;5259490;28;20663;-79
2022/03/22 10:32:52;;;;;;;16.80;10.85;;;;;;;16.06;50.88;102425.25;5262230;28;20028;-78
2022/03/22 10:35:29;;;;;;;19.30;11.15;;;;;;;16.23;49.73;102415.06;5240791;28;20043;-78
2022/03/22 10:38:05;;;;;;;17.92;10.85;;;;;;;16.21;48.70;102413.41;5260267;28;20032;-78
2022/03/22 10:40:40;;;;;;;;;;;;;;;15.96;48.03;102412.38;5260835;28;20028;-77
2022/03/22 10:43:22;;;;;;;19.27;10.40;;;;;;;15.79;48.49;102404.94;5259921;28;19911;-78
2022/03/22 10:46:01;;;;;;;15.20;10.68;;;;;;;15.71;46.66;102400.78;5267654;28;20049;-78
2022/03/22 10:48:38;;;;;;;17.20;11.43;;;;;;;15.85;48.94;102403.91;5237617;28;20032;-78
2022/03/22 10:51:09;;;;;;;17.50;10.55;;;;;;;15.83;48.18;102401.31;5265566;28;20031;-79
2022/03/22 10:53:39;;;;;;;16.47;10.37;;;;;;;15.79;48.75;102398.78;5259486;28;20032;-78
2022/03/22 10:56:10;;;;;;;15.57;10.20;;;;;;;15.85;47.48;102403.91;5265175;28;20283;-79
2022/03/22 10:58:42;;;;;;;17.25;10.27;;;;;;;15.83;47.27;102414.50;5233064;28;20289;-78
2022/03/22 11:01:14;;;;;;;18.02;10.95;;;;;;;15.89;47.11;102416.09;5251406;28;20055;-78
2022/03/22 11:03:45;;;;;;;18.48;11.55;;;;;;;15.73;48.37;102399.81;5252294;28;20043;-78
2022/03/22 11:06:19;;;;;;;16.20;10.40;;;;;;;16.05;48.71;102402.41;5240483;28;20032;-78
2022/03/22 11:08:49;;;;;;;15.27;9.90;;;;;;;16.05;47.31;102405.06;5258940;28;20028;-78
2022/03/22 11:11:20;;;;;;;15.47;10.40;;;;;;;16.36;48.47;102391.88;5256175;28;20504;-79
2022/03/22 11:13:50;;;;;;;17.20;10.52;;;;;;;16.27;48.07;102397.38;5258707;28;20282;-78
2022/03/22 11:16:22;;;;;;;16.25;10.27;;;;;;;16.42;48.75;102402.25;5255759;28;20046;-78
2022/03/22 11:18:56;;;;;;;17.75;10.13;;;;;;;16.40;45.64;102393.50;5254387;28;20045;-78
2022/03/22 11:21:28;;;;;;;15.00;9.85;;;;;;;16.40;44.87;102394.34;5259273;28;20020;-78
2022/03/22 11:24:07;;;;;;;14.52;9.90;;;;;;;16.07;44.77;102392.69;5240975;28;20375;-78
2022/03/22 11:26:45;;;;;;;17.92;10.98;;;;;;;15.95;45.35;102385.16;5256551;28;20085;-79
2022/03/22 11:29:20;;;;;;;16.65;10.10;;;;;;;16.31;46.31;102388.44;5234159;28;20061;-78
2022/03/22 11:34:41;;;;;;;17.23;9.73;;;;;;;15.95;43.75;102384.25;5255478;28;20090;-78
2022/03/22 11:37:11;;;;;;;17.73;10.40;;;;;;;16.21;45.85;102382.59;5256426;28;20048;-78
2022/03/22 11:42:53;;;;;;;16.02;10.65;;;;;;;16.34;46.25;102378.69;5254824;28;20166;-78
2022/03/22 11:45:25;;;;;;;16.20;10.68;;;;;;;16.20;44.58;102372.94;5250187;28;20043;-78
2022/03/22 11:47:55;;;;;;;16.88;10.65;;;;;;;16.37;45.68;102370.69;5233472;28;20028;-78
2022/03/22 11:50:25;;;;;;;17.50;11.23;;;;;;;16.35;46.37;102354.03;5237502;28;20035;-78
2022/03/22 11:53:01;;;;;;;19.48;11.45;;;;;;;16.42;46.24;102357.38;5259826;28;20043;-78
2022/03/22 11:55:31;;;;;;;;;;;;;;;15.98;45.95;102360.44;5250946;28;20028;-79
2022/03/22 11:58:08;;;;;;;18.00;11.33;;;;;;;15.93;46.51;102349.16;5252663;28;19915;-78
2022/03/22 12:00:47;;;;;;;18.92;11.57;;;;;;;15.79;45.77;102346.06;5256890;28;20288;-78
2022/03/22 12:03:22;;;;;;;16.73;10.88;;;;;;;15.54;45.86;102353.78;5257053;28;20040;-78
2022/03/22 12:05:52;;;;;;;18.23;11.93;;;;;;;15.40;46.95;102348.03;5250446;28;20103;-78